Time;durP1;ratioP1;P1;durP2;ratioP2;P2;SDS_P1;SDS_P2;PMS_P1;PMS_P2;Temp;Humidity;BMP_temperature;BMP_pressure;BME280_temperature;BME280_humidity;BME280_pressure;Samples;Min_cycle;Max_cycle;Signal;HPM_P1;HPM_P2
2021/01/16 00:02:39;;;;;;;32.05;19.55;;;;;;;3.11;82.73;101027.06;5073464;28;20059;-80
2021/01/16 00:05:45;;;;;;;29.20;20.50;;;;;;;3.12;83.07;101028.78;5061888;28;20388;-78
2021/01/16 00:08:49;;;;;;;31.45;19.40;;;;;;;3.14;83.24;101024.25;5061972;28;20479;-77
2021/01/16 00:11:53;;;;;;;31.70;19.48;;;;;;;3.20;83.10;101027.50;5061935;28;20047;-79
2021/01/16 00:14:58;;;;;;;40.90;23.35;;;;;;;3.18;82.76;101029.38;5092544;28;20052;-78
2021/01/16 00:18:05;;;;;;;38.67;22.67;;;;;;;3.15;82.85;101029.50;5073113;28;20063;-77
2021/01/16 00:21:09;;;;;;;30.70;20.88;;;;;;;3.17;82.71;101032.94;5061129;28;20055;-78
2021/01/16 00:24:13;;;;;;;34.80;21.08;;;;;;;3.20;82.56;101030.16;5050214;28;20059;-78
2021/01/16 00:27:18;;;;;;;34.70;20.92;;;;;;;3.21;82.19;101026.56;5060943;28;20052;-79
2021/01/16 00:30:25;;;;;;;28.20;19.20;;;;;;;3.27;82.00;101026.28;5061502;28;20059;-79
2021/01/16 00:33:36;;;;;;;31.38;19.42;;;;;;;3.21;81.59;101037.16;5070114;28;20056;-78
2021/01/16 00:36:41;;;;;;;37.50;18.80;;;;;;;3.38;80.93;101024.91;5061388;28;20060;-78
2021/01/16 00:39:46;;;;;;;28.08;18.73;;;;;;;3.28;80.66;101029.81;5061503;28;20047;-78
2021/01/16 00:42:53;;;;;;;27.17;17.80;;;;;;;3.25;80.75;101019.31;5061409;28;20052;-80
2021/01/16 00:45:58;;;;;;;29.55;19.27;;;;;;;3.29;80.69;101028.84;5061346;28;20060;-79
2021/01/16 00:49:02;;;;;;;30.33;18.83;;;;;;;3.20;80.38;101038.13;5049861;28;20051;-78
2021/01/16 00:52:06;;;;;;;25.88;17.90;;;;;;;3.20;81.37;101035.47;5061295;28;20055;-79
2021/01/16 00:55:11;;;;;;;34.50;19.17;;;;;;;3.24;81.81;101033.50;5060998;28;20056;-78
2021/01/16 00:58:18;;;;;;;35.70;21.70;;;;;;;3.28;81.89;101043.06;5050383;28;20055;-80
2021/01/16 01:01:26;;;;;;;46.10;22.40;;;;;;;3.22;81.88;101038.03;5050364;28;20495;-78
2021/01/16 01:04:30;;;;;;;38.17;21.88;;;;;;;3.01;82.93;101031.91;5049976;28;20047;-78
2021/01/16 01:07:35;;;;;;;38.30;21.60;;;;;;;2.97;83.58;101043.59;5049757;28;20072;-78
2021/01/16 01:10:45;;;;;;;35.15;20.27;;;;;;;2.95;83.62;101052.56;5049807;28;20390;-78
2021/01/16 01:13:52;;;;;;;32.45;20.67;;;;;;;3.03;83.50;101051.31;5061103;28;20056;-78
2021/01/16 01:16:56;;;;;;;29.58;19.70;;;;;;;3.09;83.60;101052.78;5060704;28;20051;-76
2021/01/16 01:20:05;;;;;;;31.85;20.02;;;;;;;3.09;83.55;101045.69;5060763;28;20056;-77
2021/01/16 01:23:09;;;;;;;32.47;19.73;;;;;;;3.12;83.42;101045.56;5049150;28;20055;-79
2021/01/16 01:26:13;;;;;;;39.90;22.63;;;;;;;3.03;83.61;101046.00;5049843;28;20582;-80
2021/01/16 01:29:17;;;;;;;33.47;22.63;;;;;;;2.93;83.76;101047.34;5061012;28;20047;-80
2021/01/16 01:32:22;;;;;;;29.83;20.10;;;;;;;2.89;84.27;101047.56;5060403;28;20064;-80
2021/01/16 01:35:27;;;;;;;32.05;21.77;;;;;;;2.82;84.42;101035.47;5049298;28;20407;-79
2021/01/16 01:38:32;;;;;;;37.83;21.33;;;;;;;2.93;84.33;101038.53;5058286;28;20060;-80
2021/01/16 01:41:38;;;;;;;26.67;19.05;;;;;;;3.00;84.11;101046.13;5070531;28;20398;-79
2021/01/16 01:44:43;;;;;;;30.02;19.50;;;;;;;3.02;83.98;101051.34;5062652;28;20047;-78
2021/01/16 01:47:48;;;;;;;28.80;19.27;;;;;;;3.03;83.71;101037.16;5062501;28;20044;-79
2021/01/16 01:50:52;;;;;;;27.60;19.83;;;;;;;3.10;83.42;101046.56;5062720;28;20056;-78
2021/01/16 01:53:58;;;;;;;30.33;20.10;;;;;;;3.11;83.37;101054.44;5062383;28;20071;-79
2021/01/16 01:57:05;;;;;;;26.40;19.08;;;;;;;2.97;83.90;101042.75;5079180;28;20403;-80
2021/01/16 02:00:12;;;;;;;29.50;19.30;;;;;;;3.00;83.95;101050.56;5073077;28;20051;-78
2021/01/16 02:03:20;;;;;;;38.55;21.85;;;;;;;3.02;84.43;101052.22;5060313;28;20419;-79
2021/01/16 02:06:27;;;;;;;32.42;20.92;;;;;;;3.01;84.04;101052.31;5072684;28;20051;-77
2021/01/16 02:09:31;;;;;;;30.80;20.73;;;;;;;2.99;84.10;101049.69;5072680;28;20043;-79
2021/01/16 02:12:40;;;;;;;26.27;19.02;;;;;;;2.95;84.22;101050.78;5072612;28;20039;-79
2021/01/16 02:15:51;;;;;;;32.55;18.35;;;;;;;3.01;84.43;101062.91;5081704;28;20058;-80
2021/01/16 02:18:57;;;;;;;26.25;18.55;;;;;;;3.01;84.40;101053.13;5069832;28;20047;-79
2021/01/16 02:22:05;;;;;;;26.50;16.95;;;;;;;2.95;84.30;101053.44;5065574;28;20051;-79
2021/01/16 02:25:14;;;;;;;23.73;17.35;;;;;;;2.91;84.30;101062.47;5081314;28;20070;-78
2021/01/16 02:28:22;;;;;;;23.98;16.77;;;;;;;2.88;84.46;101067.91;5052435;28;20384;-79
2021/01/16 02:31:32;;;;;;;25.42;17.40;;;;;;;2.88;84.61;101062.59;5063833;28;20494;-78
2021/01/16 02:34:46;;;;;;;24.55;17.52;;;;;;;2.88;84.43;101062.59;5063696;28;20051;-78
2021/01/16 02:37:50;;;;;;;;;;;;;;;2.81;84.53;101074.41;5064096;28;20044;-75
2021/01/16 02:41:00;;;;;;;22.88;16.10;;;;;;;2.82;84.55;101062.84;5063190;28;20375;-76
2021/01/16 02:44:20;;;;;;;26.70;17.00;;;;;;;2.83;84.50;101075.19;5064843;28;20035;-81
2021/01/16 02:47:28;;;;;;;24.25;17.35;;;;;;;2.86;84.59;101079.50;5079747;28;20039;-78
2021/01/16 02:50:41;;;;;;;27.73;17.67;;;;;;;2.79;84.83;101081.53;5062747;28;20046;-80
2021/01/16 02:53:49;;;;;;;27.55;17.20;;;;;;;2.80;84.90;101083.28;5051908;28;20506;-77
2021/01/16 02:56:57;;;;;;;23.77;16.67;;;;;;;2.75;84.95;101079.09;5051716;28;20111;-80
2021/01/16 03:00:06;;;;;;;25.15;17.50;;;;;;;2.72;84.89;101082.75;5063587;28;20051;-79
2021/01/16 03:03:11;;;;;;;27.67;17.10;;;;;;;2.68;85.32;101075.88;5051714;28;20052;-79
2021/01/16 03:06:18;;;;;;;31.02;16.48;;;;;;;2.63;85.53;101080.50;5063019;28;20491;-78
2021/01/16 03:09:23;;;;;;;25.63;17.38;;;;;;;2.60;85.25;101077.97;5052916;28;20063;-80
2021/01/16 03:12:28;;;;;;;22.13;17.30;;;;;;;2.50;85.17;101081.94;5054791;28;20039;-77
2021/01/16 03:15:33;;;;;;;25.90;18.45;;;;;;;2.47;85.47;101084.72;5062786;28;20514;-77
2021/01/16 03:21:43;;;;;;;26.60;16.80;;;;;;;2.38;85.73;101085.13;5078921;28;20056;-79
2021/01/16 03:24:53;;;;;;;24.77;18.23;;;;;;;2.31;85.76;101089.84;5073331;28;20075;-78
2021/01/16 03:27:58;;;;;;;28.90;17.98;;;;;;;2.29;85.42;101082.88;5076557;28;20047;-79
2021/01/16 03:31:03;;;;;;;26.45;17.08;;;;;;;2.25;85.52;101094.50;5063098;28;20044;-79
2021/01/16 03:34:07;;;;;;;22.77;17.42;;;;;;;2.18;85.64;101096.56;5056870;28;20052;-76
2021/01/16 03:37:12;;;;;;;23.48;17.08;;;;;;;2.17;85.72;101096.66;5062518;28;20419;-78
2021/01/16 03:40:17;;;;;;;24.77;17.25;;;;;;;2.09;85.77;101096.97;5050986;28;20051;-79
2021/01/16 03:43:21;;;;;;;31.77;17.98;;;;;;;1.95;86.01;101084.28;5053203;28;20056;-76
2021/01/16 03:46:25;;;;;;;24.63;16.20;;;;;;;2.01;85.92;101084.94;5050671;28;20052;-81
2021/01/16 03:49:30;;;;;;;22.20;16.70;;;;;;;2.00;85.69;101088.53;5065430;28;20510;-79
2021/01/16 03:52:37;;;;;;;25.45;17.15;;;;;;;2.02;85.92;101097.28;5053816;28;20406;-80
2021/01/16 03:55:42;;;;;;;23.60;16.88;;;;;;;1.97;85.69;101098.28;5059987;28;20044;-75
2021/01/16 03:58:46;;;;;;;21.67;16.63;;;;;;;1.91;85.95;101097.69;5069254;28;20055;-77
2021/01/16 04:01:50;;;;;;;24.75;17.70;;;;;;;1.85;85.90;101096.16;5068134;28;20118;-77
2021/01/16 04:04:55;;;;;;;23.35;16.65;;;;;;;1.82;85.77;101092.78;5080149;28;20501;-78
2021/01/16 04:07:59;;;;;;;25.00;16.80;;;;;;;1.73;85.46;101101.94;5066882;28;20039;-78
2021/01/16 04:11:03;;;;;;;25.17;16.85;;;;;;;1.68;85.62;101095.97;5061890;28;20059;-77
2021/01/16 04:14:07;;;;;;;23.20;17.92;;;;;;;1.60;85.88;101098.06;5050149;28;20047;-76
2021/01/16 04:17:12;;;;;;;29.45;19.10;;;;;;;1.47;86.25;101102.09;5052184;28;20048;-77
2021/01/16 04:20:16;;;;;;;25.88;17.58;;;;;;;1.39;86.71;101088.31;5061537;28;20044;-80
2021/01/16 04:23:20;;;;;;;24.63;18.05;;;;;;;1.33;87.42;101088.56;5060957;28;20130;-80
2021/01/16 04:26:25;;;;;;;25.10;18.95;;;;;;;1.29;87.74;101094.88;5049571;28;20044;-78
2021/01/16 04:29:29;;;;;;;28.98;17.90;;;;;;;1.33;88.16;101094.69;5058367;28;20510;-78
2021/01/16 04:32:33;;;;;;;27.13;19.25;;;;;;;1.33;88.20;101096.50;5062586;28;20059;-79
2021/01/16 04:35:38;;;;;;;26.83;17.25;;;;;;;1.39;87.79;101090.09;5081462;28;20051;-77
2021/01/16 04:38:43;;;;;;;28.90;16.88;;;;;;;1.31;87.79;101091.25;5061705;28;20384;-78
2021/01/16 04:41:50;;;;;;;26.20;18.52;;;;;;;1.30;87.36;101084.25;5049748;28;20048;-77
2021/01/16 04:44:58;;;;;;;25.30;18.52;;;;;;;1.23;87.04;101085.38;5072660;28;20056;-78
2021/01/16 04:48:04;;;;;;;23.88;18.20;;;;;;;1.19;87.13;101080.28;5072843;28;20047;-79
2021/01/16 04:51:09;;;;;;;27.95;19.08;;;;;;;1.15;87.33;101078.66;5061338;28;20040;-79
2021/01/16 04:54:17;;;;;;;24.90;17.85;;;;;;;1.15;87.40;101083.97;5061014;28;20055;-76
2021/01/16 04:57:28;;;;;;;25.00;18.00;;;;;;;1.11;87.75;101082.38;5061278;28;20051;-78
2021/01/16 05:00:38;;;;;;;24.30;16.95;;;;;;;1.08;87.56;101079.81;5050130;28;20491;-77
2021/01/16 05:03:43;;;;;;;24.25;17.23;;;;;;;1.05;87.36;101079.94;5061172;28;20052;-75
2021/01/16 05:06:48;;;;;;;22.13;17.05;;;;;;;0.98;87.07;101084.59;5061499;28;20067;-77
2021/01/16 05:09:55;;;;;;;24.58;17.38;;;;;;;0.96;87.18;101091.72;5061241;28;20491;-78
2021/01/16 05:13:05;;;;;;;32.75;19.58;;;;;;;0.94;86.56;101095.34;5053420;28;20068;-77
2021/01/16 05:16:12;;;;;;;30.60;18.10;;;;;;;0.87;86.84;101099.09;5065061;28;20383;-79
2021/01/16 05:19:20;;;;;;;28.95;19.08;;;;;;;0.79;87.13;101112.59;5064999;28;20059;-79
2021/01/16 05:22:27;;;;;;;29.70;19.10;;;;;;;0.72;87.29;101103.16;5064541;28;20055;-78
2021/01/16 05:25:33;;;;;;;27.30;17.88;;;;;;;0.75;87.67;101112.75;5065012;28;20047;-78
2021/01/16 05:28:39;;;;;;;26.25;18.25;;;;;;;0.67;87.43;101117.47;5064772;28;20055;-78
2021/01/16 05:31:51;;;;;;;23.17;16.88;;;;;;;0.54;87.60;101119.66;5064887;28;20490;-78
2021/01/16 05:35:20;;;;;;;25.70;17.92;;;;;;;0.48;87.97;101123.38;5075958;28;20051;-77
2021/01/16 05:38:41;;;;;;;25.08;17.52;;;;;;;0.45;87.99;101126.13;5064938;28;20043;-78
2021/01/16 05:41:46;;;;;;;24.15;17.40;;;;;;;0.42;88.42;101123.56;5064636;28;20396;-78
2021/01/16 05:44:52;;;;;;;31.33;19.65;;;;;;;0.41;88.61;101118.34;5076081;28;20502;-77
2021/01/16 05:47:57;;;;;;;28.30;19.45;;;;;;;0.33;88.79;101133.59;5063834;28;20059;-79
2021/01/16 05:51:02;;;;;;;30.42;19.38;;;;;;;0.31;89.37;101131.00;5064043;28;20056;-78
2021/01/16 05:54:07;;;;;;;31.00;22.50;;;;;;;0.35;89.82;101143.19;5063701;28;20502;-79
2021/01/16 05:57:17;;;;;;;71.20;46.72;;;;;;;0.40;89.54;101133.31;5052932;28;20047;-78
2021/01/16 06:00:25;;;;;;;40.88;27.35;;;;;;;0.42;89.39;101142.06;5052938;28;20052;-75
2021/01/16 06:03:31;;;;;;;31.77;21.08;;;;;;;0.47;89.47;101141.94;5063981;28;20055;-78
2021/01/16 06:06:36;;;;;;;26.70;17.92;;;;;;;0.41;88.89;101144.75;5063917;28;20059;-77
2021/01/16 06:09:41;;;;;;;29.83;19.58;;;;;;;0.26;88.63;101140.00;5063808;28;20071;-78
2021/01/16 06:12:48;;;;;;;31.83;19.15;;;;;;;0.22;89.04;101139.25;5062489;28;20044;-76
2021/01/16 06:15:54;;;;;;;25.08;18.45;;;;;;;0.23;88.81;101143.59;5050912;28;20055;-76
2021/01/16 06:19:04;;;;;;;31.35;18.30;;;;;;;0.26;89.08;101143.50;5062494;28;20051;-78
2021/01/16 06:22:10;;;;;;;25.00;18.05;;;;;;;0.33;88.66;101165.25;5062162;28;20051;-79
2021/01/16 06:25:20;;;;;;;23.55;17.25;;;;;;;0.23;88.41;101151.50;5072968;28;20056;-78
2021/01/16 06:28:28;;;;;;;27.23;19.20;;;;;;;0.21;88.54;101155.97;5063927;28;20411;-78
2021/01/16 06:31:34;;;;;;;25.40;18.20;;;;;;;0.21;88.48;101160.38;5063751;28;20086;-78
2021/01/16 06:34:40;;;;;;;27.60;18.08;;;;;;;0.21;88.44;101155.97;5061529;28;20055;-78
2021/01/16 06:37:49;;;;;;;27.95;18.65;;;;;;;0.17;88.32;101149.09;5052001;28;20044;-77
2021/01/16 06:40:54;;;;;;;25.27;17.90;;;;;;;0.22;88.14;101160.38;5051331;28;20060;-78
2021/01/16 06:43:59;;;;;;;28.45;17.88;;;;;;;0.22;87.87;101160.38;5074372;28;20494;-77
2021/01/16 06:47:04;;;;;;;25.80;17.75;;;;;;;0.19;87.27;101163.09;5063032;28;20063;-79
2021/01/16 06:50:09;;;;;;;24.08;17.75;;;;;;;0.08;87.65;101159.94;5062634;28;20419;-78
2021/01/16 06:53:26;;;;;;;21.65;16.98;;;;;;;0.04;87.68;101168.00;5051762;28;20071;-78
2021/01/16 06:56:35;;;;;;;22.67;17.23;;;;;;;0.00;87.80;101168.09;5063006;28;20047;-78
2021/01/16 06:59:41;;;;;;;24.58;17.33;;;;;;;-0.02;88.05;101169.03;5063007;28;20055;-78
2021/01/16 07:02:52;;;;;;;21.95;16.02;;;;;;;0.11;88.05;101170.38;5062797;28;20045;-78
2021/01/16 07:05:56;;;;;;;24.67;17.13;;;;;;;0.14;87.58;101172.06;5062704;28;20047;-78
2021/01/16 07:09:02;;;;;;;22.70;16.52;;;;;;;0.13;87.96;101168.56;5062462;28;20368;-79
2021/01/16 07:12:08;;;;;;;25.15;16.60;;;;;;;0.14;87.91;101166.78;5051355;28;20040;-77
2021/01/16 07:15:13;;;;;;;23.75;17.23;;;;;;;0.29;87.73;101179.50;5062282;28;20403;-78
2021/01/16 07:18:19;;;;;;;22.13;16.33;;;;;;;0.43;87.11;101180.75;5062386;28;20039;-78
2021/01/16 07:21:05;;;;;;;26.48;16.85;;;;;;;0.43;86.99;101179.91;5046328;28;20055;-77
2021/01/16 07:24:11;;;;;;;22.92;16.40;;;;;;;0.48;86.78;101189.41;5050588;28;20051;-80
2021/01/16 07:27:17;;;;;;;26.58;18.70;;;;;;;0.52;86.21;101185.72;5062358;28;20051;-78
2021/01/16 07:30:25;;;;;;;27.27;19.83;;;;;;;0.59;86.20;101194.34;5062286;28;20044;-78
2021/01/16 07:33:30;;;;;;;26.98;18.35;;;;;;;0.75;85.91;101192.88;5050899;28;20376;-78
2021/01/16 07:36:35;;;;;;;26.20;17.60;;;;;;;1.16;85.15;101191.44;5050682;28;20514;-79
2021/01/16 07:39:43;;;;;;;24.67;17.35;;;;;;;1.72;83.31;101197.28;5061907;28;20044;-78
2021/01/16 07:42:52;;;;;;;24.50;16.80;;;;;;;2.32;81.00;101194.84;5050634;28;20494;-77
2021/01/16 07:46:01;;;;;;;26.40;16.40;;;;;;;2.92;77.84;101207.34;5050799;28;20055;-78
2021/01/16 07:49:07;;;;;;;28.77;15.55;;;;;;;3.58;74.89;101221.22;5050725;28;20071;-78
2021/01/16 07:52:18;;;;;;;20.05;14.25;;;;;;;4.39;71.29;101206.72;5050168;28;20051;-78
2021/01/16 07:55:35;;;;;;;21.63;15.40;;;;;;;5.21;68.12;101211.38;5050428;28;20051;-79
2021/01/16 07:58:49;;;;;;;20.40;13.95;;;;;;;5.76;66.43;101209.28;5050565;28;20051;-78
2021/01/16 08:02:15;;;;;;;18.42;13.68;;;;;;;6.41;63.42;101207.47;5050357;28;20043;-79
2021/01/16 08:05:25;;;;;;;19.15;13.18;;;;;;;7.60;59.01;101208.28;5079513;28;20066;-78
2021/01/16 08:08:51;;;;;;;22.52;13.25;;;;;;;7.83;57.08;101213.03;5061146;28;20047;-80
2021/01/16 08:12:00;;;;;;;18.77;12.27;;;;;;;8.86;54.86;101208.97;5050308;28;20051;-78
2021/01/16 08:15:05;;;;;;;16.23;12.13;;;;;;;9.69;51.28;101188.91;5049794;28;20510;-77
2021/01/16 08:18:18;;;;;;;15.82;12.35;;;;;;;10.23;49.94;101193.03;5069143;28;20044;-80
2021/01/16 08:21:23;;;;;;;16.08;11.35;;;;;;;11.29;47.01;101202.91;5060883;28;20475;-79
2021/01/16 08:24:30;;;;;;;15.95;12.02;;;;;;;12.42;44.33;101193.78;5049354;28;20491;-78
2021/01/16 08:27:37;;;;;;;16.25;11.85;;;;;;;13.29;41.98;101181.94;5061433;28;20475;-79
2021/01/16 08:30:42;;;;;;;15.50;12.02;;;;;;;14.36;39.85;101180.47;5061233;28;20041;-87
2021/01/16 08:33:47;;;;;;;17.80;11.85;;;;;;;15.48;37.44;101183.50;5049635;28;20044;-77
2021/01/16 08:37:06;;;;;;;14.27;11.63;;;;;;;15.15;35.95;101183.94;5061143;28;20040;-77
2021/01/16 08:40:12;;;;;;;20.65;10.70;;;;;;;17.02;33.67;101170.84;5061225;28;20452;-78
2021/01/16 08:43:39;;;;;;;14.90;10.88;;;;;;;16.83;33.73;101177.28;5060788;28;20056;-77
2021/01/16 08:46:43;;;;;;;18.40;10.85;;;;;;;17.28;32.77;101181.75;5075015;28;20040;-77
2021/01/16 08:49:49;;;;;;;13.10;10.38;;;;;;;22.38;26.16;101170.34;5065722;28;20032;-77
2021/01/16 08:52:53;;;;;;;13.10;9.57;;;;;;;25.18;22.18;101176.22;5069182;28;20040;-78
2021/01/16 08:56:22;;;;;;;13.52;10.05;;;;;;;27.54;19.46;101183.72;5068957;28;20059;-77
2021/01/16 08:59:34;;;;;;;13.52;9.30;;;;;;;27.47;19.35;101182.94;5069201;28;20403;-75
2021/01/16 09:02:39;;;;;;;12.43;9.30;;;;;;;28.59;18.13;101182.59;5069033;28;20039;-82
2021/01/16 09:05:45;;;;;;;11.23;9.20;;;;;;;29.12;17.50;101181.91;5069231;28;20059;-80
2021/01/16 09:08:50;;;;;;;13.32;8.90;;;;;;;28.63;17.82;101186.66;5081011;28;20067;-79
2021/01/16 09:12:07;;;;;;;12.20;9.15;;;;;;;28.02;17.90;101194.16;5069695;28;20055;-79
2021/01/16 09:15:39;;;;;;;12.60;9.00;;;;;;;29.95;17.14;101191.81;5080829;28;20055;-78
2021/01/16 09:18:54;;;;;;;18.17;12.45;;;;;;;27.28;18.78;101197.69;5069541;28;20055;-79
2021/01/16 09:22:31;;;;;;;14.05;10.00;;;;;;;26.53;19.15;101194.91;5080709;28;20387;-79
2021/01/16 09:25:40;;;;;;;14.52;10.02;;;;;;;26.42;19.97;101193.69;5066886;28;20044;-77
2021/01/16 09:28:45;;;;;;;14.13;9.75;;;;;;;27.53;18.70;101194.97;5076311;28;20032;-76
2021/01/16 09:31:51;;;;;;;12.48;10.43;;;;;;;25.37;20.58;101188.31;5066676;28;20052;-75
2021/01/16 09:34:55;;;;;;;19.50;11.32;;;;;;;23.50;22.53;101191.63;5066304;28;20044;-76
2021/01/16 09:38:00;;;;;;;12.45;10.75;;;;;;;19.43;27.52;101209.13;5078018;28;20044;-76
2021/01/16 09:41:05;;;;;;;16.38;11.35;;;;;;;15.47;33.65;101208.84;5067896;28;20055;-74
2021/01/16 09:44:10;;;;;;;15.10;12.20;;;;;;;13.82;36.96;101207.81;5068734;28;20048;-76
2021/01/16 09:47:26;;;;;;;17.75;12.43;;;;;;;11.13;42.58;101219.38;5069091;28;20044;-73
2021/01/16 09:50:33;;;;;;;17.02;12.50;;;;;;;11.39;42.91;101222.72;5068977;28;20375;-76
2021/01/16 09:53:39;;;;;;;17.15;14.00;;;;;;;11.04;44.23;101220.03;5069152;28;20048;-75
2021/01/16 09:56:46;;;;;;;15.63;11.60;;;;;;;10.27;45.52;101228.56;5068921;28;20040;-77
2021/01/16 10:00:08;;;;;;;15.23;11.65;;;;;;;10.02;46.59;101223.22;5070070;28;20040;-77
2021/01/16 10:03:16;;;;;;;15.68;12.73;;;;;;;8.56;50.59;101231.56;5095718;28;20047;-77
2021/01/16 10:06:34;;;;;;;16.48;12.75;;;;;;;8.84;50.38;101231.47;5083993;28;20051;-75
2021/01/16 10:09:46;;;;;;;16.90;13.30;;;;;;;9.12;49.96;101217.94;5072692;28;20078;-78
2021/01/16 10:12:59;;;;;;;18.00;14.48;;;;;;;8.40;51.13;101204.94;5084125;28;20046;-78
2021/01/16 10:16:09;;;;;;;18.02;13.73;;;;;;;7.99;52.61;101212.06;5083886;28;20051;-76
2021/01/16 10:19:17;;;;;;;19.85;13.50;;;;;;;7.65;53.43;101210.66;5083924;28;20055;-75
2021/01/16 10:22:28;;;;;;;17.63;13.77;;;;;;;7.22;53.94;101215.09;5072022;28;20451;-78
2021/01/16 10:25:43;;;;;;;15.13;13.43;;;;;;;7.54;53.52;101205.97;5072438;28;20047;-79
2021/01/16 10:28:50;;;;;;;;;;;;;;;7.76;52.25;101213.53;5072674;28;20039;-75
2021/01/16 10:31:54;;;;;;;18.00;14.38;;;;;;;7.45;52.62;101216.38;5072277;28;19916;-79
2021/01/16 10:34:58;;;;;;;26.85;14.93;;;;;;;7.26;53.38;101213.13;5083285;28;20051;-74
2021/01/16 10:38:03;;;;;;;19.77;15.00;;;;;;;7.26;53.49;101215.78;5072107;28;20051;-76
2021/01/16 10:41:10;;;;;;;16.33;14.02;;;;;;;6.53;54.64;101210.31;5083421;28;20066;-76
2021/01/16 10:44:21;;;;;;;19.48;14.13;;;;;;;6.20;55.14;101208.66;5072138;28;20051;-76
2021/01/16 10:47:32;;;;;;;23.40;15.30;;;;;;;6.47;55.69;101202.63;5072070;28;20051;-76
2021/01/16 10:50:38;;;;;;;17.58;13.80;;;;;;;6.79;54.68;101197.25;5071949;28;20051;-76
2021/01/16 10:53:43;;;;;;;20.75;14.20;;;;;;;6.85;54.18;101195.09;5083464;28;20407;-76
2021/01/16 10:57:05;;;;;;;18.73;13.23;;;;;;;6.55;55.32;101200.41;5083383;28;20059;-75
2021/01/16 11:00:17;;;;;;;20.95;15.20;;;;;;;6.78;55.09;101191.06;5071816;28;20051;-74
2021/01/16 11:03:30;;;;;;;19.77;13.35;;;;;;;6.83;54.71;101183.66;5071966;28;20075;-74
2021/01/16 11:06:48;;;;;;;16.40;13.48;;;;;;;6.79;54.01;101181.25;5071619;28;20062;-75
2021/01/16 11:10:12;;;;;;;16.75;13.45;;;;;;;6.82;54.60;101176.56;5082691;28;20542;-74
2021/01/16 11:13:23;;;;;;;21.48;15.05;;;;;;;6.79;54.49;101181.25;5071424;28;20067;-74
2021/01/16 11:16:28;;;;;;;19.75;15.23;;;;;;;6.31;53.56;101180.47;5071260;28;20494;-74
2021/01/16 11:19:44;;;;;;;20.67;14.93;;;;;;;6.12;53.98;101173.63;5071153;28;20051;-74
2021/01/16 11:23:28;;;;;;;18.75;13.73;;;;;;;6.24;54.12;101173.78;5070714;28;20509;-77
2021/01/16 11:26:46;;;;;;;17.95;13.93;;;;;;;6.21;54.96;101165.09;5070970;28;20044;-76
2021/01/16 11:29:53;;;;;;;21.58;13.90;;;;;;;6.15;55.41;101165.41;5071163;28;20043;-78
2021/01/16 11:33:11;;;;;;;17.92;13.23;;;;;;;5.87;54.87;101163.47;5082579;28;20494;-76
2021/01/16 11:36:19;;;;;;;17.27;13.82;;;;;;;5.90;56.06;101164.13;5070937;28;20051;-75
2021/01/16 11:39:42;;;;;;;18.85;13.93;;;;;;;5.89;55.72;101151.78;5082407;28;20066;-78
2021/01/16 11:43:00;;;;;;;17.55;13.75;;;;;;;5.80;54.55;101151.41;5070816;28;20067;-75
2021/01/16 11:46:07;;;;;;;21.33;14.13;;;;;;;5.81;53.62;101145.09;5070929;28;20063;-75
2021/01/16 11:49:13;;;;;;;17.15;13.63;;;;;;;5.83;54.18;101145.88;5082312;28;20058;-75
2021/01/16 11:52:17;;;;;;;16.08;13.95;;;;;;;5.92;55.18;101140.09;5094908;28;20114;-78
2021/01/16 11:55:23;;;;;;;22.75;14.82;;;;;;;5.95;55.62;101128.41;5094624;28;20075;-75
2021/01/16 11:58:28;;;;;;;18.33;14.05;;;;;;;6.00;55.81;101113.84;5094685;28;20059;-75
2021/01/16 12:01:38;;;;;;;31.70;25.70;;;;;;;6.00;56.05;101115.69;5094654;28;20047;-73
2021/01/16 12:04:46;;;;;;;23.40;17.88;;;;;;;5.97;55.57;101115.84;5094617;28;20066;-75
2021/01/16 12:07:58;;;;;;;43.00;29.70;;;;;;;6.02;55.91;101116.44;5094611;28;20070;-79
2021/01/16 12:11:06;;;;;;;23.77;16.58;;;;;;;6.10;54.63;101112.38;5094554;28;20059;-77
2021/01/16 12:14:10;;;;;;;18.75;14.43;;;;;;;6.06;55.75;101104.66;5094512;28;20059;-75
2021/01/16 12:17:19;;;;;;;19.27;12.73;;;;;;;6.18;55.68;101103.94;5094482;28;20205;-78
2021/01/16 12:20:26;;;;;;;19.10;13.32;;;;;;;6.22;54.99;101102.84;5094391;28;20051;-75
2021/01/16 12:23:46;;;;;;;18.88;14.18;;;;;;;6.20;54.42;101092.25;5092895;28;20047;-78
2021/01/16 12:26:52;;;;;;;17.38;13.57;;;;;;;6.09;55.06;101088.50;5093393;28;20043;-75
2021/01/16 12:29:57;;;;;;;18.90;13.63;;;;;;;6.09;55.24;101083.16;5094296;28;20067;-75
2021/01/16 12:33:02;;;;;;;20.38;15.55;;;;;;;6.05;54.92;101089.63;5094181;28;20047;-78
2021/01/16 12:36:07;;;;;;;20.48;14.50;;;;;;;5.97;54.57;101081.22;5093860;28;20079;-75
2021/01/16 12:39:11;;;;;;;24.70;15.75;;;;;;;6.01;56.00;101078.28;5091290;28;20043;-77
2021/01/16 12:42:17;;;;;;;21.25;14.70;;;;;;;6.08;56.32;101070.78;5075330;28;20498;-77
2021/01/16 12:45:24;;;;;;;19.35;15.18;;;;;;;6.11;55.98;101068.81;5093182;28;20414;-76
2021/01/16 12:48:29;;;;;;;22.20;15.00;;;;;;;6.19;55.63;101063.03;5089128;28;20047;-76
2021/01/16 12:51:34;;;;;;;17.95;15.35;;;;;;;6.21;56.13;101063.78;5089524;28;20052;-75
2021/01/16 12:54:38;;;;;;;23.08;15.55;;;;;;;6.07;56.10;101061.94;5089621;28;20047;-75
2021/01/16 12:57:50;;;;;;;26.40;15.73;;;;;;;5.88;57.39;101059.47;5089953;28;20395;-76
2021/01/16 13:00:55;;;;;;;26.10;16.42;;;;;;;5.91;57.91;101061.09;5090458;28;20055;-78
2021/01/16 13:04:00;;;;;;;23.58;16.38;;;;;;;5.97;57.36;101051.91;5093968;28;20043;-77
2021/01/16 13:07:05;;;;;;;22.42;17.08;;;;;;;5.80;57.78;101045.69;5094157;28;20391;-74
2021/01/16 13:10:12;;;;;;;21.27;16.17;;;;;;;5.86;57.79;101048.03;5093597;28;20043;-73
2021/01/16 13:13:16;;;;;;;23.30;16.35;;;;;;;5.72;57.16;101033.75;5093834;28;20048;-73
2021/01/16 13:16:23;;;;;;;21.45;16.33;;;;;;;5.76;57.85;101045.94;5093538;28;20067;-75
2021/01/16 13:19:27;;;;;;;21.10;15.38;;;;;;;5.75;57.60;101031.75;5093851;28;20047;-75
2021/01/16 13:22:32;;;;;;;18.70;15.82;;;;;;;5.87;57.54;101035.59;5093347;28;20132;-75
2021/01/16 13:25:36;;;;;;;23.98;17.13;;;;;;;5.76;57.92;101021.97;5093609;28;20055;-78
2021/01/16 13:28:46;;;;;;;31.95;21.45;;;;;;;5.75;57.83;101031.75;5092878;28;20051;-75
2021/01/16 13:31:52;;;;;;;25.55;17.48;;;;;;;5.77;58.30;101035.22;5092647;28;20047;-75
2021/01/16 13:35:02;;;;;;;30.27;21.27;;;;;;;5.75;58.27;101039.75;5096752;28;20074;-75
2021/01/16 13:38:07;;;;;;;20.42;16.42;;;;;;;5.74;58.31;101024.75;5097603;28;20047;-73
2021/01/16 13:41:11;;;;;;;18.75;15.20;;;;;;;5.89;57.67;101026.56;5097506;28;20059;-75
2021/01/16 13:44:19;;;;;;;19.65;15.38;;;;;;;5.85;57.41;101027.66;5097493;28;20055;-78
2021/01/16 13:47:25;;;;;;;24.13;15.80;;;;;;;5.85;57.60;101019.69;5097405;28;20047;-77
2021/01/16 13:50:34;;;;;;;31.15;19.13;;;;;;;5.82;57.44;101016.31;5097549;28;20051;-75
2021/01/16 13:53:50;;;;;;;21.67;15.07;;;;;;;5.76;57.45;101017.53;5096477;28;20486;-75
2021/01/16 13:56:54;;;;;;;18.70;14.80;;;;;;;5.77;57.53;101007.72;5097074;28;20059;-77
2021/01/16 13:59:59;;;;;;;18.80;14.82;;;;;;;5.69;57.96;100994.84;5088192;28;20336;-77
2021/01/16 14:03:03;;;;;;;21.85;15.07;;;;;;;5.70;57.37;101009.88;5082462;28;20051;-74
2021/01/16 14:06:08;;;;;;;21.80;14.57;;;;;;;5.73;57.53;101016.81;5094684;28;20090;-78
2021/01/16 14:09:18;;;;;;;18.73;15.25;;;;;;;5.72;57.67;101010.66;5087380;28;20051;-76
2021/01/16 14:12:22;;;;;;;17.63;14.52;;;;;;;5.72;57.45;101010.66;5094123;28;20055;-78
2021/01/16 14:15:27;;;;;;;19.50;15.13;;;;;;;5.70;57.90;100999.22;5074507;28;20060;-79
2021/01/16 14:18:36;;;;;;;23.92;14.93;;;;;;;5.68;57.54;101014.44;5093373;28;20396;-78
2021/01/16 14:21:52;;;;;;;20.95;15.27;;;;;;;5.73;57.58;101004.38;5094273;28;20043;-75
2021/01/16 14:24:57;;;;;;;19.65;15.10;;;;;;;5.73;57.55;101000.84;5092737;28;20067;-75
2021/01/16 14:28:01;;;;;;;19.40;15.70;;;;;;;5.80;57.19;100997.75;5094944;28;20054;-77